Time;durP1;ratioP1;P1;durP2;ratioP2;P2;SDS_P1;SDS_P2;PMS_P1;PMS_P2;Temp;Humidity;BMP_temperature;BMP_pressure;BME280_temperature;BME280_humidity;BME280_pressure;Samples;Min_cycle;Max_cycle;Signal;HPM_P1;HPM_P2
2022/02/18 00:04:52;;;;;;;29.33;5.77;;;;;7.80;100673.00;;;;10028028;29;20663;-78
2022/02/18 00:09:54;;;;;;;38.43;6.53;;;;;7.80;100680.00;;;;10029133;29;20669;-79
2022/02/18 00:15:00;;;;;;;29.27;5.70;;;;;7.80;100678.00;;;;10044190;29;20875;-78
2022/02/18 00:20:03;;;;;;;33.03;6.43;;;;;7.90;100657.00;;;;10025116;29;20209;-80
2022/02/18 00:25:08;;;;;;;41.67;6.83;;;;;7.80;100652.00;;;;10013793;29;20228;-79
2022/02/18 00:30:12;;;;;;;26.90;4.87;;;;;7.90;100658.00;;;;10023893;29;20204;-79
2022/02/18 00:35:19;;;;;;;31.77;6.07;;;;;7.90;100634.00;;;;10012344;29;20207;-79
2022/02/18 00:40:22;;;;;;;33.47;5.67;;;;;7.90;100645.00;;;;10028080;29;20729;-79
2022/02/18 00:45:25;;;;;;;31.93;4.90;;;;;7.90;100640.00;;;;9997154;29;20225;-79
2022/02/18 00:50:27;;;;;;;29.20;5.40;;;;;7.90;100632.00;;;;10008496;29;20269;-78
2022/02/18 00:55:29;;;;;;;23.00;5.17;;;;;7.90;100624.00;;;;10041917;29;20201;-79
2022/02/18 01:00:33;;;;;;;32.67;5.63;;;;;7.90;100615.00;;;;10026879;29;20209;-78
2022/02/18 01:05:35;;;;;;;37.47;6.30;;;;;7.90;100602.00;;;;10033394;29;20284;-78
2022/02/18 01:10:38;;;;;;;29.37;4.93;;;;;7.90;100594.00;;;;9998254;29;20950;-78
2022/02/18 01:15:40;;;;;;;22.50;5.07;;;;;7.90;100587.00;;;;10036774;29;20675;-78
2022/02/18 01:20:42;;;;;;;26.67;4.90;;;;;7.90;100580.00;;;;10056555;29;20580;-78
2022/02/18 01:25:44;;;;;;;35.10;5.33;;;;;7.90;100577.00;;;;10057295;29;20324;-78
2022/02/18 01:30:46;;;;;;;33.67;5.43;;;;;7.90;100567.00;;;;10056984;29;20256;-78
2022/02/18 01:35:50;;;;;;;28.80;6.30;;;;;7.90;100550.00;;;;10023124;29;20201;-78
2022/02/18 01:40:53;;;;;;;26.87;5.30;;;;;7.90;100545.00;;;;10034553;29;20200;-79
2022/02/18 01:45:55;;;;;;;31.07;5.67;;;;;7.90;100515.00;;;;10010388;29;20694;-77
2022/02/18 01:50:58;;;;;;;30.70;4.87;;;;;7.90;100495.00;;;;9996426;29;20990;-77
2022/02/18 01:56:03;;;;;;;22.50;4.87;;;;;7.80;100498.00;;;;9981996;29;20602;-77
2022/02/18 02:01:06;;;;;;;25.90;5.60;;;;;7.80;100500.00;;;;9981326;29;20206;-77
2022/02/18 02:06:09;;;;;;;23.17;4.73;;;;;7.70;100479.00;;;;10016770;29;20263;-78
2022/02/18 02:11:11;;;;;;;33.70;5.37;;;;;7.70;100481.00;;;;10048909;29;20204;-77
2022/02/18 02:16:15;;;;;;;30.57;5.73;;;;;7.70;100462.00;;;;10032452;29;20185;-78
2022/02/18 02:21:17;;;;;;;30.73;4.77;;;;;7.70;100446.00;;;;10033047;29;20228;-78
2022/02/18 02:26:23;;;;;;;29.20;5.17;;;;;7.70;100422.00;;;;10032786;29;20319;-78
2022/02/18 02:31:25;;;;;;;23.43;4.17;;;;;7.70;100418.00;;;;10032848;29;20207;-78
2022/02/18 02:36:29;;;;;;;25.67;6.07;;;;;7.70;100401.00;;;;10017815;29;20665;-78
2022/02/18 02:41:31;;;;;;;17.97;5.70;;;;;7.70;100375.00;;;;10017771;29;20201;-78
2022/02/18 02:46:37;;;;;;;32.17;6.30;;;;;7.70;100360.00;;;;10033238;29;20225;-77
2022/02/18 02:51:53;;;;;;;28.77;5.67;;;;;7.70;100358.00;;;;10018967;29;20205;-78
2022/02/18 02:56:56;;;;;;;26.37;7.03;;;;;7.70;100341.00;;;;10032940;29;20205;-77
2022/02/18 03:02:08;;;;;;;22.10;5.60;;;;;7.70;100323.00;;;;10031988;29;20207;-78
2022/02/18 03:07:12;;;;;;;20.53;4.93;;;;;7.70;100325.00;;;;10024115;29;20240;-78
2022/02/18 03:12:38;;;;;;;26.63;4.47;;;;;7.70;100287.00;;;;10019951;29;20185;-77
2022/02/18 03:17:45;;;;;;;24.03;5.10;;;;;7.70;100271.00;;;;10032192;29;20201;-78
2022/02/18 03:23:00;;;;;;;29.07;5.33;;;;;7.70;100262.00;;;;10054801;29;20235;-77
2022/02/18 03:28:04;;;;;;;33.97;6.03;;;;;7.70;100242.00;;;;10084663;29;20627;-77
2022/02/18 03:33:11;;;;;;;17.23;3.40;;;;;7.70;100221.00;;;;10068430;29;20193;-78
2022/02/18 03:38:14;;;;;;;18.43;4.87;;;;;7.70;100215.00;;;;10083972;29;20677;-77
2022/02/18 03:43:20;;;;;;;22.90;5.50;;;;;7.70;100203.00;;;;10084701;29;20213;-77
2022/02/18 03:48:41;;;;;;;16.63;4.03;;;;;7.70;100176.00;;;;10070745;29;20207;-77
2022/02/18 03:53:49;;;;;;;23.73;4.13;;;;;7.70;100147.00;;;;10053517;29;20271;-77
2022/02/18 03:58:55;;;;;;;18.43;4.37;;;;;7.70;100120.00;;;;10084100;29;20195;-77
2022/02/18 04:03:57;;;;;;;24.67;3.60;;;;;7.70;100118.00;;;;10063895;29;20220;-77
2022/02/18 04:09:05;;;;;;;26.07;5.57;;;;;7.80;100093.00;;;;10030169;29;20197;-78
2022/02/18 04:14:13;;;;;;;23.73;4.43;;;;;7.80;100056.00;;;;10014353;29;20193;-77
2022/02/18 04:19:15;;;;;;;18.23;3.70;;;;;7.80;100067.00;;;;10029504;29;20227;-78
2022/02/18 04:24:38;;;;;;;23.00;4.67;;;;;7.90;100048.00;;;;10068505;29;20829;-76
2022/02/18 04:29:40;;;;;;;15.37;3.90;;;;;7.90;100024.00;;;;10045058;29;20256;-77
2022/02/18 04:34:42;;;;;;;20.93;4.57;;;;;8.00;100029.00;;;;10013468;29;20235;-78
2022/02/18 04:39:45;;;;;;;15.83;4.30;;;;;8.00;100014.00;;;;10029554;29;20224;-78
2022/02/18 04:44:47;;;;;;;17.70;3.30;;;;;8.10;99996.00;;;;10044278;29;20252;-77
2022/02/18 04:49:49;;;;;;;18.87;4.57;;;;;8.20;99987.00;;;;10043531;29;20240;-77
2022/02/18 04:54:53;;;;;;;22.03;4.00;;;;;8.30;99974.00;;;;10028622;29;20193;-76
2022/02/18 04:59:55;;;;;;;22.00;3.87;;;;;8.40;99972.00;;;;10027781;29;20209;-77
2022/02/18 05:04:59;;;;;;;23.87;4.53;;;;;8.50;99965.00;;;;10027698;29;20243;-77
2022/02/18 05:10:06;;;;;;;22.57;4.00;;;;;8.60;99964.00;;;;10027340;29;20212;-77
2022/02/18 05:15:08;;;;;;;19.83;4.47;;;;;8.50;99940.00;;;;10027414;29;20614;-77
2022/02/18 05:20:10;;;;;;;28.33;4.60;;;;;8.40;99910.00;;;;10011194;29;20224;-77
2022/02/18 05:25:12;;;;;;;15.17;3.37;;;;;8.30;99902.00;;;;9972866;29;20233;-77
2022/02/18 05:30:14;;;;;;;15.50;4.00;;;;;8.20;99887.00;;;;9975783;29;20221;-77
2022/02/18 05:35:17;;;;;;;14.43;3.20;;;;;8.20;99854.00;;;;10004174;29;20283;-77
2022/02/18 05:40:19;;;;;;;15.40;3.50;;;;;8.30;99822.00;;;;10027888;29;20209;-77
2022/02/18 05:45:21;;;;;;;17.93;3.40;;;;;8.40;99806.00;;;;10012358;29;20225;-77
2022/02/18 05:50:23;;;;;;;18.20;3.50;;;;;8.30;99792.00;;;;10045635;29;20241;-77
2022/02/18 05:55:25;;;;;;;22.83;4.30;;;;;8.30;99779.00;;;;10033605;29;20194;-77
2022/02/18 06:00:27;;;;;;;10.37;3.40;;;;;8.20;99760.00;;;;10032755;29;20201;-77
2022/02/18 06:05:28;;;;;;;12.03;3.23;;;;;8.30;99749.00;;;;10033728;29;20275;-77
2022/02/18 06:10:30;;;;;;;15.70;3.83;;;;;8.30;99732.00;;;;10048737;29;20196;-77
2022/02/18 06:15:32;;;;;;;14.77;2.83;;;;;8.40;99725.00;;;;10033149;29;20189;-77
2022/02/18 06:20:35;;;;;;;12.40;3.00;;;;;8.50;99724.00;;;;10038596;29;20197;-77
2022/02/18 06:25:37;;;;;;;12.17;3.30;;;;;8.50;99715.00;;;;10055773;29;20234;-78
2022/02/18 06:30:40;;;;;;;11.63;2.77;;;;;8.60;99701.00;;;;10086619;29;20227;-77
2022/02/18 06:35:43;;;;;;;9.17;2.57;;;;;8.70;99699.00;;;;10052815;29;20212;-78
2022/02/18 06:40:45;;;;;;;10.20;2.57;;;;;8.80;99678.00;;;;10016505;29;20206;-78
2022/02/18 06:45:46;;;;;;;10.63;2.53;;;;;9.00;99667.00;;;;10016843;29;20311;-78
2022/02/18 06:50:49;;;;;;;9.53;2.90;;;;;9.20;99637.00;;;;10016475;29;20204;-78
2022/02/18 06:55:52;;;;;;;7.00;2.60;;;;;9.40;99651.00;;;;10031570;29;20249;-77
2022/02/18 07:00:54;;;;;;;8.90;2.60;;;;;9.60;99644.00;;;;10015393;29;20201;-78
2022/02/18 07:05:57;;;;;;;6.70;2.40;;;;;9.70;99624.00;;;;10032237;29;20320;-77
2022/02/18 07:10:59;;;;;;;6.60;2.33;;;;;9.90;99603.00;;;;10030838;29;20200;-76
2022/02/18 07:16:01;;;;;;;3.07;1.73;;;;;10.00;99602.00;;;;10030812;29;20200;-77
2022/02/18 07:21:03;;;;;;;4.70;1.90;;;;;10.10;99571.00;;;;10040350;29;20220;-77
2022/02/18 07:26:05;;;;;;;2.57;1.60;;;;;10.20;99576.00;;;;10099730;29;20255;-78
2022/02/18 07:31:08;;;;;;;4.20;1.70;;;;;10.40;99566.00;;;;10043842;29;20208;-78
2022/02/18 07:36:12;;;;;;;2.93;1.53;;;;;10.40;99563.00;;;;10030196;29;20233;-78
2022/02/18 07:41:14;;;;;;;3.00;1.40;;;;;10.50;99547.00;;;;10029839;29;20280;-79
2022/02/18 07:46:17;;;;;;;4.83;1.60;;;;;10.60;99526.00;;;;10029519;29;20225;-78
2022/02/18 07:51:19;;;;;;;2.83;1.20;;;;;10.80;99525.00;;;;10029468;29;20261;-79
2022/02/18 07:56:21;;;;;;;5.43;1.80;;;;;10.90;99514.00;;;;10014813;29;20239;-78
2022/02/18 08:01:23;;;;;;;2.17;1.20;;;;;11.00;99508.00;;;;10044102;29;20657;-78
2022/02/18 08:06:25;;;;;;;1.83;1.43;;;;;11.00;99511.00;;;;10007356;29;20234;-78
2022/02/18 08:11:27;;;;;;;3.97;1.40;;;;;11.10;99501.00;;;;10031286;29;20546;-78
2022/02/18 08:16:31;;;;;;;3.13;1.47;;;;;11.20;99487.00;;;;10027544;29;20276;-79
2022/02/18 08:21:32;;;;;;;1.90;1.27;;;;;11.30;99459.00;;;;10044023;29;20630;-78
2022/02/18 08:26:34;;;;;;;3.00;1.40;;;;;11.50;99453.00;;;;10028797;29;20731;-78
2022/02/18 08:31:36;;;;;;;4.03;1.80;;;;;11.70;99458.00;;;;10059519;29;20209;-78
2022/02/18 08:36:38;;;;;;;2.20;1.40;;;;;11.80;99449.00;;;;10012676;29;20224;-78
2022/02/18 08:41:41;;;;;;;3.70;1.70;;;;;12.00;99431.00;;;;10017366;29;20203;-78
2022/02/18 08:46:43;;;;;;;1.70;1.50;;;;;12.10;99431.00;;;;10012643;29;20232;-78
2022/02/18 08:51:44;;;;;;;2.90;2.07;;;;;12.30;99426.00;;;;10043086;29;20725;-78
2022/02/18 08:56:47;;;;;;;4.23;2.27;;;;;12.40;99408.00;;;;10028392;29;20193;-78
2022/02/18 09:01:49;;;;;;;2.63;1.90;;;;;12.60;99407.00;;;;10004802;29;20201;-77
2022/02/18 09:06:51;;;;;;;2.13;1.50;;;;;12.60;99400.00;;;;10013126;29;20228;-78
2022/02/18 09:11:53;;;;;;;2.47;1.70;;;;;12.50;99389.00;;;;10028874;29;20236;-77
2022/02/18 09:16:56;;;;;;;2.73;1.40;;;;;12.60;99390.00;;;;10043004;29;20185;-77
2022/02/18 09:21:57;;;;;;;2.17;1.50;;;;;12.60;99384.00;;;;10016185;29;20249;-78
2022/02/18 09:27:01;;;;;;;3.47;1.70;;;;;12.50;99379.00;;;;9989901;29;20221;-78
2022/02/18 09:32:04;;;;;;;3.77;1.67;;;;;12.60;99343.00;;;;10010375;29;20217;-78
2022/02/18 09:37:06;;;;;;;4.07;1.50;;;;;12.80;99332.00;;;;10037673;29;20201;-78
2022/02/18 09:42:11;;;;;;;2.17;1.63;;;;;13.10;99346.00;;;;10038236;29;20201;-78
2022/02/18 09:47:13;;;;;;;1.93;1.63;;;;;13.10;99363.00;;;;9993442;29;20626;-77
2022/02/18 09:52:15;;;;;;;4.27;2.03;;;;;13.00;99337.00;;;;10023565;29;20234;-78
2022/02/18 09:57:17;;;;;;;1.70;1.60;;;;;12.80;99331.00;;;;10053715;29;20190;-78
2022/02/18 10:02:19;;;;;;;2.17;1.50;;;;;12.80;99295.00;;;;10006451;29;20266;-77
2022/02/18 10:07:29;;;;;;;3.37;1.67;;;;;13.10;99294.00;;;;10029881;29;20231;-78
2022/02/18 10:12:42;;;;;;;5.43;1.80;;;;;13.20;99281.00;;;;10043361;29;20206;-79
2022/02/18 10:18:03;;;;;;;3.57;2.10;;;;;13.10;99257.00;;;;10017561;29;20613;-78
2022/02/18 10:23:09;;;;;;;2.53;1.73;;;;;13.30;99261.00;;;;10016708;29;20237;-78
2022/02/18 10:28:16;;;;;;;1.73;1.63;;;;;13.60;99243.00;;;;10062556;29;20635;-77
2022/02/18 10:33:22;;;;;;;2.20;1.53;;;;;13.60;99233.00;;;;10028558;29;20253;-78
2022/02/18 10:38:35;;;;;;;2.40;1.00;;;;;13.90;99229.00;;;;10013518;29;20213;-78
2022/02/18 10:43:44;;;;;;;2.47;1.13;;;;;14.00;99213.00;;;;9998286;29;20219;-78
2022/02/18 10:48:49;;;;;;;3.23;1.20;;;;;13.70;99207.00;;;;10026657;29;20193;-77
2022/02/18 10:53:51;;;;;;;1.80;1.50;;;;;13.80;99199.00;;;;10038379;29;20287;-78
2022/02/18 10:58:53;;;;;;;2.93;1.50;;;;;13.70;99181.00;;;;10027400;29;20198;-79
2022/02/18 11:04:00;;;;;;;1.80;1.40;;;;;13.90;99177.00;;;;9989363;29;20700;-79
2022/02/18 11:09:10;;;;;;;4.30;1.40;;;;;13.80;99164.00;;;;10027660;29;20197;-78
2022/02/18 11:14:18;;;;;;;1.17;1.07;;;;;13.90;99125.00;;;;10057057;29;20289;-78
2022/02/18 11:19:21;;;;;;;1.20;1.10;;;;;14.30;99121.00;;;;10006804;29;20250;-78
2022/02/18 11:24:45;;;;;;;1.00;0.90;;;;;14.30;99117.00;;;;10007064;29;20227;-78
2022/02/18 11:29:48;;;;;;;1.63;0.90;;;;;14.00;99110.00;;;;10025023;29;20198;-77
2022/02/18 11:34:59;;;;;;;0.90;0.90;;;;;13.70;99085.00;;;;10002667;29;20670;-78
2022/02/18 11:40:27;;;;;;;6.63;1.33;;;;;13.50;99069.00;;;;10006969;29;20202;-78
2022/02/18 11:45:30;;;;;;;1.37;1.00;;;;;13.60;99040.00;;;;9991128;29;20635;-77
2022/02/18 11:50:32;;;;;;;1.80;1.20;;;;;13.70;99031.00;;;;9975782;29;20197;-78
2022/02/18 11:55:38;;;;;;;1.57;1.30;;;;;13.60;98999.00;;;;10021761;29;20225;-78
2022/02/18 12:00:50;;;;;;;2.20;1.30;;;;;14.30;98981.00;;;;9991303;29;20213;-77
2022/02/18 12:06:13;;;;;;;0.87;0.87;;;;;15.10;98983.00;;;;10031116;29;20756;-79
2022/02/18 12:11:17;;;;;;;1.17;1.08;;;;;15.10;98986.00;;;;10023108;29;20303;-78
2022/02/18 12:16:21;;;;;;;0.90;0.90;;;;;14.70;98960.00;;;;10043610;29;20189;-78
2022/02/18 12:21:23;;;;;;;4.67;1.30;;;;;13.40;99064.00;;;;10042809;29;20260;-79
2022/02/18 12:26:25;;;;;;;7.53;1.63;;;;;12.10;99083.00;;;;10044253;29;20308;-82
2022/02/18 12:31:54;;;;;;;7.43;2.07;;;;;11.10;99064.00;;;;9994010;29;20209;-81
2022/02/18 12:36:57;;;;;;;9.60;1.57;;;;;10.60;99041.00;;;;10033680;29;20237;-80
2022/02/18 12:42:20;;;;;;;7.00;1.40;;;;;10.40;99032.00;;;;10044128;29;20262;-80
2022/02/18 12:47:27;;;;;;;6.70;1.60;;;;;10.40;99038.00;;;;10028607;29;20236;-80
2022/02/18 12:52:30;;;;;;;8.10;1.30;;;;;10.60;99041.00;;;;10028528;29;20204;-80
2022/02/18 12:57:41;;;;;;;8.13;2.50;;;;;10.50;99026.00;;;;10014803;29;20322;-79
2022/02/18 13:02:46;;;;;;;10.77;2.33;;;;;10.20;99022.00;;;;10031561;29;20209;-80
2022/02/18 13:07:51;;;;;;;6.53;1.50;;;;;10.00;99025.00;;;;10015389;29;20248;-79
2022/02/18 13:12:53;;;;;;;7.80;1.70;;;;;9.80;98995.00;;;;10021801;29;20209;-79
2022/02/18 13:17:58;;;;;;;8.00;1.40;;;;;9.90;98971.00;;;;10059074;29;20199;-79
2022/02/18 13:23:13;;;;;;;5.87;1.60;;;;;10.10;98987.00;;;;10065029;29;20311;-80
2022/02/18 13:28:22;;;;;;;7.50;1.47;;;;;10.30;98955.00;;;;10029203;29;20241;-80
2022/02/18 13:33:31;;;;;;;6.50;1.83;;;;;10.50;98976.00;;;;10017337;29;20241;-80
2022/02/18 13:38:40;;;;;;;7.70;2.00;;;;;10.60;98968.00;;;;10019029;29;20213;-81
2022/02/18 13:43:45;;;;;;;5.77;1.60;;;;;10.70;98948.00;;;;10026105;29;20215;-79
2022/02/18 13:48:47;;;;;;;9.30;1.50;;;;;10.70;98962.00;;;;10018795;29;20233;-80
2022/02/18 13:53:50;;;;;;;7.33;1.40;;;;;10.90;98955.00;;;;10029657;29;20232;-79
2022/02/18 13:58:53;;;;;;;6.90;2.33;;;;;11.30;98960.00;;;;10060636;29;20228;-78
2022/02/18 14:03:59;;;;;;;5.83;1.87;;;;;11.90;98976.00;;;;10025432;29;20637;-77
2022/02/18 14:09:01;;;;;;;9.30;2.37;;;;;11.80;98959.00;;;;10033306;29;20205;-78
2022/02/18 14:14:16;;;;;;;6.07;1.63;;;;;12.90;98990.00;;;;10023164;29;21583;-77
2022/02/18 14:19:19;;;;;;;10.47;2.47;;;;;14.00;98986.00;;;;10003662;29;20197;-76
2022/02/18 14:24:35;;;;;;;11.03;2.23;;;;;13.60;98980.00;;;;10016440;29;20233;-78
2022/02/18 14:30:02;;;;;;;9.17;2.23;;;;;14.80;98996.00;;;;10027232;29;20208;-79
2022/02/18 14:35:04;;;;;;;12.63;2.40;;;;;14.70;98991.00;;;;10043070;29;20192;-78
2022/02/18 14:40:15;;;;;;;7.87;2.23;;;;;13.50;99010.00;;;;10009686;29;20193;-78
2022/02/18 14:45:30;;;;;;;12.77;2.57;;;;;13.10;99016.00;;;;10015088;29;20702;-78
2022/02/18 14:50:35;;;;;;;11.97;2.83;;;;;13.70;99018.00;;;;10046413;29;20221;-78
2022/02/18 14:55:37;;;;;;;11.30;2.43;;;;;12.80;99007.00;;;;10021218;29;20261;-79
2022/02/18 15:00:40;;;;;;;9.73;2.97;;;;;12.30;99025.00;;;;10017167;29;20192;-78
2022/02/18 15:05:42;;;;;;;12.13;2.50;;;;;12.10;99035.00;;;;10010137;29;20244;-78
2022/02/18 15:10:45;;;;;;;9.77;2.50;;;;;12.00;99020.00;;;;10035908;29;20200;-78
2022/02/18 15:15:47;;;;;;;10.23;2.60;;;;;11.80;99030.00;;;;9985312;29;20681;-78
2022/02/18 15:20:49;;;;;;;10.13;2.83;;;;;12.00;98995.00;;;;10030644;29;20210;-78
2022/02/18 15:25:51;;;;;;;10.30;2.77;;;;;12.80;99025.00;;;;10017602;29;20225;-78
2022/02/18 15:36:17;;;;;;;16.43;3.80;;;;;12.20;99024.00;;;;10005517;29;20329;-77
2022/02/18 15:46:41;;;;;;;21.83;3.60;;;;;11.80;98985.00;;;;10015026;29;20225;-79
2022/02/18 15:51:45;;;;;;;14.80;4.43;;;;;11.50;99030.00;;;;10035291;29;20258;-79
2022/02/18 15:56:47;;;;;;;16.37;3.77;;;;;11.10;99022.00;;;;10005239;29;20201;-81
2022/02/18 16:01:51;;;;;;;16.60;3.23;;;;;10.90;99058.00;;;;10010856;29;20757;-79
2022/02/18 16:06:57;;;;;;;17.07;4.03;;;;;10.50;99021.00;;;;10028488;29;20338;-79
2022/02/18 16:12:00;;;;;;;19.43;4.33;;;;;10.30;99124.00;;;;9993839;29;20206;-78
2022/02/18 16:17:03;;;;;;;21.17;5.07;;;;;10.10;99132.00;;;;9981717;29;20239;-78
2022/02/18 16:22:05;;;;;;;15.63;3.80;;;;;10.00;99152.00;;;;10017735;29;20324;-79
2022/02/18 16:27:09;;;;;;;16.70;4.23;;;;;9.80;99172.00;;;;10012230;29;20243;-80
2022/02/18 16:32:11;;;;;;;21.87;3.10;;;;;9.60;99196.00;;;;10042747;29;20203;-80
2022/02/18 16:37:14;;;;;;;14.00;2.73;;;;;9.50;99220.00;;;;10026696;29;20665;-80
2022/02/18 16:42:16;;;;;;;15.00;3.80;;;;;9.40;99256.00;;;;10025574;29;20204;-80
2022/02/18 16:47:18;;;;;;;16.40;3.17;;;;;9.30;99253.00;;;;9995495;29;20250;-79
2022/02/18 16:52:20;;;;;;;15.97;3.47;;;;;9.30;99296.00;;;;10013285;29;20212;-79
2022/02/18 16:57:22;;;;;;;19.63;3.60;;;;;9.20;99291.00;;;;10042512;29;20254;-79
2022/02/18 17:02:24;;;;;;;18.20;3.17;;;;;9.10;99317.00;;;;9998212;29;20264;-80
2022/02/18 17:07:27;;;;;;;12.53;3.53;;;;;9.10;99326.00;;;;10011139;29;20717;-80
2022/02/18 17:12:29;;;;;;;14.57;3.53;;;;;9.00;99359.00;;;;10019489;29;20677;-79
2022/02/18 17:17:32;;;;;;;16.60;3.50;;;;;9.00;99389.00;;;;10004950;29;20207;-79
2022/02/18 17:22:36;;;;;;;12.40;2.93;;;;;8.90;99410.00;;;;10022729;29;20229;-79
2022/02/18 17:27:38;;;;;;;13.67;3.03;;;;;8.90;99425.00;;;;10015351;29;20240;-79
2022/02/18 17:32:40;;;;;;;18.20;3.13;;;;;8.80;99390.00;;;;10003632;29;20614;-79
2022/02/18 17:37:43;;;;;;;13.97;3.17;;;;;8.70;99445.00;;;;10004016;29;20205;-80
2022/02/18 17:42:45;;;;;;;22.00;3.57;;;;;8.70;99456.00;;;;10006153;29;20209;-79
2022/02/18 17:47:47;;;;;;;14.50;2.93;;;;;8.60;99451.00;;;;10027433;29;20254;-80
2022/02/18 17:52:49;;;;;;;14.00;3.57;;;;;8.60;99481.00;;;;10015111;29;20202;-80
2022/02/18 17:57:51;;;;;;;18.20;3.37;;;;;8.50;99516.00;;;;9980251;29;20288;-79
2022/02/18 18:02:53;;;;;;;13.60;2.83;;;;;8.50;99523.00;;;;10017695;29;20208;-80
2022/02/18 18:07:55;;;;;;;12.67;2.67;;;;;8.40;99544.00;;;;9998086;29;20616;-80
2022/02/18 18:12:57;;;;;;;9.17;2.47;;;;;8.30;99564.00;;;;10014755;29;20250;-80
2022/02/18 18:18:00;;;;;;;11.10;2.83;;;;;8.20;99593.00;;;;10002413;29;20296;-80
2022/02/18 18:23:03;;;;;;;20.00;3.63;;;;;8.20;99604.00;;;;10032028;29;20233;-80
2022/02/18 18:28:05;;;;;;;10.83;2.83;;;;;8.20;99624.00;;;;10029767;29;20222;-79
2022/02/18 18:33:07;;;;;;;11.97;2.63;;;;;8.10;99636.00;;;;10027916;29;20205;-79
2022/02/18 18:38:09;;;;;;;11.47;2.63;;;;;8.00;99655.00;;;;10022276;29;20234;-80
2022/02/18 18:43:11;;;;;;;12.63;2.80;;;;;8.00;99655.00;;;;10011996;29;20201;-80
2022/02/18 18:48:13;;;;;;;9.90;2.73;;;;;7.90;99659.00;;;;10007638;29;20228;-79
2022/02/18 18:53:17;;;;;;;6.70;2.03;;;;;7.80;99666.00;;;;10027410;29;20205;-80
2022/02/18 18:58:19;;;;;;;16.33;2.53;;;;;7.80;99679.00;;;;10017800;29;20672;-80
2022/02/18 19:03:21;;;;;;;15.47;2.63;;;;;7.80;99686.00;;;;10030598;29;20261;-80
2022/02/18 19:08:23;;;;;;;14.63;2.90;;;;;7.80;99698.00;;;;9999762;29;20269;-80
2022/02/18 19:13:25;;;;;;;13.20;3.60;;;;;7.70;99722.00;;;;10027240;29;20209;-80
2022/02/18 19:18:27;;;;;;;22.90;3.63;;;;;7.70;99728.00;;;;10015447;29;20201;-79
2022/02/18 19:23:30;;;;;;;21.00;4.23;;;;;7.70;99736.00;;;;10012445;29;20242;-80
2022/02/18 19:28:33;;;;;;;18.43;4.30;;;;;7.70;99751.00;;;;10020088;29;20756;-79
2022/02/18 19:33:35;;;;;;;19.83;4.03;;;;;7.60;99755.00;;;;10040488;29;20209;-79
2022/02/18 19:38:37;;;;;;;15.33;3.53;;;;;7.60;99768.00;;;;10044285;29;20189;-80
2022/02/18 19:43:39;;;;;;;33.53;4.73;;;;;7.60;99785.00;;;;10014201;29;20204;-80
2022/02/18 19:48:41;;;;;;;16.87;4.17;;;;;7.50;99769.00;;;;10012534;29;20221;-80
2022/02/18 19:53:43;;;;;;;14.67;3.90;;;;;7.40;99784.00;;;;9976672;29;20693;-81
2022/02/18 19:58:45;;;;;;;17.00;3.37;;;;;7.40;99805.00;;;;9976762;29;20246;-79
2022/02/18 20:03:47;;;;;;;20.40;4.40;;;;;7.40;99811.00;;;;9994448;29;20209;-80
2022/02/18 20:08:50;;;;;;;18.67;4.77;;;;;7.40;99828.00;;;;10027684;29;20747;-78
2022/02/18 20:13:52;;;;;;;13.93;3.60;;;;;7.30;99825.00;;;;10028407;29;20213;-80
2022/02/18 20:18:54;;;;;;;19.67;3.90;;;;;7.30;99829.00;;;;10042872;29;20201;-80
2022/02/18 20:23:58;;;;;;;15.23;3.20;;;;;7.30;99822.00;;;;10002611;29;20336;-80
2022/02/18 20:28:59;;;;;;;13.17;2.80;;;;;7.30;99829.00;;;;9985334;29;20281;-81
2022/02/18 20:34:02;;;;;;;14.70;3.60;;;;;7.40;99840.00;;;;10003832;29;20296;-80
2022/02/18 20:39:04;;;;;;;13.87;2.90;;;;;7.30;99844.00;;;;10004744;29;20677;-81
2022/02/18 20:44:06;;;;;;;13.63;3.00;;;;;7.30;99843.00;;;;10023115;29;20205;-80
2022/02/18 20:49:08;;;;;;;15.03;2.83;;;;;7.20;99850.00;;;;10027654;29;20217;-81
2022/02/18 20:54:10;;;;;;;16.33;3.10;;;;;7.20;99857.00;;;;10022952;29;20212;-78
2022/02/18 20:59:12;;;;;;;19.13;2.93;;;;;7.10;99863.00;;;;10011896;29;20229;-81
2022/02/18 21:04:14;;;;;;;12.83;2.80;;;;;7.10;99852.00;;;;10043362;29;20229;-81
2022/02/18 21:09:21;;;;;;;18.00;3.47;;;;;7.10;99873.00;;;;10026632;29;20284;-80
2022/02/18 21:14:22;;;;;;;11.37;2.80;;;;;7.10;99907.00;;;;10012269;29;20208;-79
2022/02/18 21:19:24;;;;;;;13.93;3.47;;;;;7.00;99915.00;;;;10028945;29;20205;-80
2022/02/18 21:24:28;;;;;;;16.20;3.50;;;;;7.00;99924.00;;;;10027058;29;20237;-81
2022/02/18 21:29:31;;;;;;;16.83;3.23;;;;;7.10;99869.00;;;;9996642;29;20213;-81
2022/02/18 21:34:33;;;;;;;10.17;2.33;;;;;7.10;99896.00;;;;10039356;29;20216;-80
2022/02/18 21:39:35;;;;;;;10.57;3.00;;;;;7.10;99951.00;;;;10019499;29;20197;-81
2022/02/18 21:44:36;;;;;;;11.17;2.27;;;;;6.90;100004.00;;;;10033558;29;20213;-81
2022/02/18 21:49:38;;;;;;;6.73;1.60;;;;;5.60;99998.00;;;;10037019;29;20217;-81
2022/02/18 21:54:40;;;;;;;5.17;1.27;;;;;5.20;100018.00;;;;10014879;29;20204;-80
2022/02/18 21:59:42;;;;;;;9.67;1.87;;;;;5.00;100020.00;;;;9999624;29;20362;-80
2022/02/18 22:04:44;;;;;;;8.73;1.80;;;;;5.00;100039.00;;;;10032987;29;20202;-79
2022/02/18 22:09:47;;;;;;;12.00;2.07;;;;;5.20;100033.00;;;;10020495;29;20201;-79
2022/02/18 22:14:49;;;;;;;12.90;2.10;;;;;5.30;100039.00;;;;10027374;29;20247;-79
2022/02/18 22:19:51;;;;;;;11.33;2.13;;;;;5.40;100065.00;;;;10014107;29;20205;-79
2022/02/18 22:24:53;;;;;;;9.97;2.30;;;;;5.50;100079.00;;;;10022093;29;20236;-79
2022/02/18 22:29:55;;;;;;;7.73;1.47;;;;;5.50;100085.00;;;;10046208;29;20288;-79
2022/02/18 22:34:57;;;;;;;15.40;2.43;;;;;5.60;100101.00;;;;10032813;29;20200;-80
2022/02/18 22:39:59;;;;;;;8.07;2.43;;;;;5.70;100117.00;;;;10031056;29;20233;-79
2022/02/18 22:45:01;;;;;;;15.73;2.43;;;;;5.70;100124.00;;;;10031540;29;20213;-79
2022/02/18 22:50:04;;;;;;;14.97;3.10;;;;;5.70;100143.00;;;;10031055;29;20204;-79
2022/02/18 22:55:07;;;;;;;17.43;3.10;;;;;5.80;100156.00;;;;10012491;29;20208;-79
2022/02/18 23:00:11;;;;;;;13.43;3.27;;;;;6.00;100144.00;;;;10029350;29;20661;-80
2022/02/18 23:05:12;;;;;;;18.80;3.07;;;;;6.00;100151.00;;;;10030498;29;20221;-80
2022/02/18 23:10:14;;;;;;;14.57;2.50;;;;;6.00;100155.00;;;;10015025;29;20700;-80
2022/02/18 23:15:16;;;;;;;14.33;2.50;;;;;6.00;100173.00;;;;9992675;29;20258;-79
2022/02/18 23:20:18;;;;;;;19.43;3.40;;;;;6.00;100180.00;;;;10026352;29;20207;-78
2022/02/18 23:25:20;;;;;;;14.17;2.77;;;;;5.90;100184.00;;;;10052347;29;20326;-78
2022/02/18 23:30:22;;;;;;;14.10;2.57;;;;;5.90;100211.00;;;;10064075;29;20538;-78
2022/02/18 23:35:25;;;;;;;11.40;2.50;;;;;6.00;100224.00;;;;10028967;29;20201;-80
2022/02/18 23:40:27;;;;;;;7.97;2.07;;;;;6.00;100232.00;;;;9993162;29;20204;-79
2022/02/18 23:45:29;;;;;;;10.03;2.43;;;;;6.00;100248.00;;;;10057418;29;20213;-79
2022/02/18 23:50:31;;;;;;;16.93;2.47;;;;;6.00;100249.00;;;;9983085;29;20212;-79
2022/02/18 23:55:33;;;;;;;13.43;3.17;;;;;5.90;100272.00;;;;10028941;29;20193;-80
